Terminal Aerodrome Forecast
Issued by NWS Grand Forks, ND

Home | Current Version | Previous Version | Graphics & Text | Print | Product List | Glossary On
Versions: 1 2 3 4 5 6 7 8 9 10 11 12 13 14 15 16 17 18
000
FTUS43 KFGF 290520
TAFGFK
TAF
KGFK 290520Z 2906/3006 VRB06KT P6SM OVC015
      TEMPO 2909/2911 1SM BR BKN008
     FM291100 VRB06KT 1 1/2SM BR BKN008
      TEMPO 2911/2913 1/2SM FG OVC003
     FM291500 34006KT P6SM BKN010
     FM291700 36008KT P6SM BKN045=

USA.gov is the U.S. government's official web portal to all federal, state and local government web resources and services.